createdAt,value
2017-02-23T00:00:19.206Z,993.83
2017-02-23T00:00:59.787Z,993.82
2017-02-23T00:01:40.360Z,993.85
2017-02-23T00:02:20.933Z,993.89
2017-02-23T00:03:01.507Z,993.79
2017-02-23T00:03:42.086Z,993.85
2017-02-23T00:04:22.653Z,993.88
2017-02-23T00:05:03.215Z,993.86
2017-02-23T00:05:43.777Z,993.86
2017-02-23T00:06:24.342Z,993.85
2017-02-23T00:07:04.931Z,993.87
2017-02-23T00:07:45.469Z,993.82
2017-02-23T00:08:26.040Z,993.87
2017-02-23T00:09:06.671Z,993.82
2017-02-23T00:09:47.256Z,993.83
2017-02-23T00:10:27.827Z,993.81
2017-02-23T00:11:08.407Z,993.89
2017-02-23T00:11:48.962Z,993.83
2017-02-23T00:12:29.541Z,993.79
2017-02-23T00:13:10.108Z,993.86
2017-02-23T00:13:50.670Z,993.8
2017-02-23T00:14:31.258Z,993.81
2017-02-23T00:15:11.827Z,993.81
2017-02-23T00:15:52.429Z,993.86
2017-02-23T00:16:33.007Z,993.76
2017-02-23T00:17:13.604Z,993.82
2017-02-23T00:17:54.183Z,993.77
2017-02-23T00:18:34.755Z,993.79
2017-02-23T00:19:15.328Z,993.8
2017-02-23T00:19:55.916Z,993.74
2017-02-23T00:20:36.495Z,993.77
2017-02-23T00:21:17.069Z,993.76
2017-02-23T00:21:57.633Z,993.77
2017-02-23T00:22:38.216Z,993.74
2017-02-23T00:23:18.780Z,993.74
2017-02-23T00:23:59.340Z,993.76
2017-02-23T00:24:39.922Z,993.76
2017-02-23T00:25:20.482Z,993.79
2017-02-23T00:26:01.079Z,993.81
2017-02-23T00:26:41.645Z,993.8
2017-02-23T00:27:22.251Z,993.85
2017-02-23T00:28:02.832Z,993.86
2017-02-23T00:28:43.405Z,993.86
2017-02-23T00:29:23.983Z,993.83
2017-02-23T00:30:04.556Z,993.74
2017-02-23T00:30:45.127Z,993.8
2017-02-23T00:31:25.691Z,993.79
2017-02-23T00:32:06.253Z,993.8
2017-02-23T00:32:46.840Z,993.82
2017-02-23T00:33:27.417Z,993.83
2017-02-23T00:34:07.986Z,993.87
2017-02-23T00:34:48.541Z,993.86
2017-02-23T00:35:29.106Z,993.87
2017-02-23T00:36:09.660Z,993.73
2017-02-23T00:36:50.245Z,993.82
2017-02-23T00:37:30.813Z,993.78
2017-02-23T00:38:11.404Z,993.82
2017-02-23T00:38:51.965Z,993.88
2017-02-23T00:39:32.547Z,993.81
2017-02-23T00:40:13.107Z,993.84
2017-02-23T00:40:53.678Z,993.85
2017-02-23T00:41:34.255Z,993.83
2017-02-23T00:42:14.815Z,993.76
2017-02-23T00:42:55.377Z,993.78
2017-02-23T00:43:35.940Z,993.8
2017-02-23T00:44:16.494Z,993.78
2017-02-23T00:44:57.071Z,993.83
2017-02-23T00:45:37.655Z,993.84
2017-02-23T00:46:18.216Z,993.84
2017-02-23T00:46:58.812Z,993.84
2017-02-23T00:47:39.391Z,993.79
2017-02-23T00:48:19.962Z,993.83
2017-02-23T00:49:00.527Z,993.87
2017-02-23T00:49:41.112Z,993.88
2017-02-23T00:50:21.695Z,993.86
2017-02-23T00:51:02.314Z,993.86
2017-02-23T00:51:42.883Z,993.84
2017-02-23T00:52:23.470Z,993.9
2017-02-23T00:53:04.031Z,993.9
2017-02-23T00:53:44.601Z,993.88
2017-02-23T00:54:25.162Z,993.79
2017-02-23T00:55:05.738Z,993.9
2017-02-23T00:55:46.329Z,993.91
2017-02-23T00:56:26.891Z,993.92
2017-02-23T00:57:07.478Z,993.88
2017-02-23T00:57:48.040Z,993.87
2017-02-23T00:58:28.602Z,993.9
2017-02-23T00:59:09.178Z,993.86
2017-02-23T00:59:49.748Z,993.87
2017-02-23T01:00:30.310Z,993.87
2017-02-23T01:01:10.890Z,993.84
2017-02-23T01:01:51.507Z,993.81
2017-02-23T01:02:32.083Z,993.88
2017-02-23T01:03:12.665Z,993.92
2017-02-23T01:03:53.239Z,993.89
2017-02-23T01:04:33.795Z,993.85
2017-02-23T01:05:14.362Z,993.92
2017-02-23T01:05:54.927Z,993.87
2017-02-23T01:06:35.492Z,993.9
2017-02-23T01:07:16.076Z,993.94
2017-02-23T01:07:56.686Z,993.89
2017-02-23T01:08:37.325Z,993.88
2017-02-23T01:09:18.354Z,993.89
2017-02-23T01:09:58.905Z,993.85
2017-02-23T01:10:39.494Z,993.77
2017-02-23T01:11:20.059Z,993.81
2017-02-23T01:12:00.636Z,993.81
2017-02-23T01:12:41.215Z,993.81
2017-02-23T01:13:21.802Z,993.81
2017-02-23T01:14:02.382Z,993.74
2017-02-23T01:14:42.976Z,993.79
2017-02-23T01:15:23.561Z,993.73
2017-02-23T01:16:04.144Z,993.73
2017-02-23T01:16:44.716Z,993.72
2017-02-23T01:17:25.285Z,993.77
2017-02-23T01:18:05.852Z,993.73
2017-02-23T01:18:46.444Z,993.74
2017-02-23T01:19:27.023Z,993.79
2017-02-23T01:20:07.666Z,993.72
2017-02-23T01:20:48.282Z,993.76
2017-02-23T01:21:28.879Z,993.77
2017-02-23T01:22:09.454Z,993.81
2017-02-23T01:22:50.035Z,993.77
2017-02-23T01:23:33.223Z,993.75
2017-02-23T01:24:13.828Z,993.8
2017-02-23T01:24:54.430Z,993.8
2017-02-23T01:25:35.014Z,993.81
2017-02-23T01:26:15.601Z,993.78
2017-02-23T01:26:56.181Z,993.8
2017-02-23T01:27:36.790Z,993.86
2017-02-23T01:28:17.395Z,993.8
2017-02-23T01:28:58.015Z,993.83
2017-02-23T01:29:38.602Z,993.83
2017-02-23T01:30:19.208Z,993.83
2017-02-23T01:30:59.813Z,993.83
2017-02-23T01:31:40.413Z,993.89
2017-02-23T01:32:21.015Z,993.81
2017-02-23T01:33:01.631Z,993.88
2017-02-23T01:33:42.237Z,993.91
2017-02-23T01:34:22.841Z,993.88
2017-02-23T01:35:03.437Z,993.87
2017-02-23T01:35:44.022Z,993.88
2017-02-23T01:36:24.618Z,993.86
2017-02-23T01:37:05.239Z,993.86
2017-02-23T01:37:45.808Z,993.9
2017-02-23T01:38:26.419Z,993.83
2017-02-23T01:39:07.027Z,993.85
2017-02-23T01:39:47.622Z,993.86
2017-02-23T01:40:28.214Z,993.85
2017-02-23T01:41:08.809Z,993.84
2017-02-23T01:41:49.388Z,993.87
2017-02-23T01:42:29.993Z,993.84
2017-02-23T01:43:10.606Z,993.87
2017-02-23T01:43:51.209Z,993.82
2017-02-23T01:44:31.820Z,993.81
2017-02-23T01:45:12.435Z,993.85
2017-02-23T01:45:53.018Z,993.79
2017-02-23T01:46:33.594Z,993.82
2017-02-23T01:47:14.225Z,993.79
2017-02-23T01:47:54.808Z,993.79
2017-02-23T01:48:35.406Z,993.89
2017-02-23T01:49:16.022Z,993.81
2017-02-23T01:49:56.595Z,993.84
2017-02-23T01:50:37.185Z,993.83
2017-02-23T01:51:17.769Z,993.81
2017-02-23T01:51:58.383Z,993.81
2017-02-23T01:52:38.967Z,993.82
2017-02-23T01:53:19.544Z,993.78
2017-02-23T01:54:00.138Z,993.81
2017-02-23T01:54:40.706Z,993.82
2017-02-23T01:55:21.306Z,993.77
2017-02-23T01:56:02.706Z,993.81
2017-02-23T01:56:43.295Z,993.81
2017-02-23T01:57:23.882Z,993.78
2017-02-23T01:58:04.469Z,993.82
2017-02-23T01:58:45.115Z,993.75
2017-02-23T01:59:25.693Z,993.8
2017-02-23T02:00:06.255Z,993.8
2017-02-23T02:00:46.829Z,993.77
2017-02-23T02:01:27.407Z,993.8
2017-02-23T02:02:07.986Z,993.77
2017-02-23T02:02:48.549Z,993.81
2017-02-23T02:03:29.139Z,993.77
2017-02-23T02:04:09.732Z,993.83
2017-02-23T02:04:50.303Z,993.78
2017-02-23T02:05:30.889Z,993.74
2017-02-23T02:06:11.476Z,993.73
2017-02-23T02:06:52.069Z,993.75
2017-02-23T02:07:32.674Z,993.69
2017-02-23T02:08:13.241Z,993.67
2017-02-23T02:08:53.876Z,993.7
2017-02-23T02:09:34.473Z,993.66
2017-02-23T02:10:15.051Z,993.73
2017-02-23T02:10:55.634Z,993.68
2017-02-23T02:11:36.597Z,993.67
2017-02-23T02:12:19.138Z,993.6
2017-02-23T02:12:59.709Z,993.69
2017-02-23T02:13:40.312Z,993.57
2017-02-23T02:14:20.919Z,993.59
2017-02-23T02:15:01.496Z,993.61
2017-02-23T02:15:42.053Z,993.62
2017-02-23T02:16:22.618Z,993.59
2017-02-23T02:17:03.197Z,993.53
2017-02-23T02:17:43.772Z,993.49
2017-02-23T02:18:24.378Z,993.56
2017-02-23T02:19:04.943Z,993.56
2017-02-23T02:19:45.512Z,993.53
2017-02-23T02:20:26.085Z,993.54
2017-02-23T02:21:06.678Z,993.53
2017-02-23T02:21:47.289Z,993.55
2017-02-23T02:22:27.878Z,993.54
2017-02-23T02:23:08.450Z,993.53
2017-02-23T02:23:49.024Z,993.53
2017-02-23T02:24:29.598Z,993.57
2017-02-23T02:25:10.176Z,993.6
2017-02-23T02:25:50.735Z,993.56
2017-02-23T02:26:31.302Z,993.49
2017-02-23T02:27:11.867Z,993.5
2017-02-23T02:27:52.460Z,993.56
2017-02-23T02:28:33.015Z,993.49
2017-02-23T02:29:13.579Z,993.55
2017-02-23T02:29:54.148Z,993.48
2017-02-23T02:30:34.730Z,993.48
2017-02-23T02:31:15.302Z,993.55
2017-02-23T02:31:55.876Z,993.58
2017-02-23T02:32:36.496Z,993.65
2017-02-23T02:33:17.109Z,993.58
2017-02-23T02:33:57.696Z,993.59
2017-02-23T02:34:38.271Z,993.58
2017-02-23T02:35:18.855Z,993.53
2017-02-23T02:35:59.440Z,993.57
2017-02-23T02:36:40.021Z,993.57
2017-02-23T02:37:20.646Z,993.54
2017-02-23T02:38:01.206Z,993.6
2017-02-23T02:38:41.774Z,993.53
2017-02-23T02:39:22.406Z,993.53
2017-02-23T02:40:02.961Z,993.56
2017-02-23T02:40:43.593Z,993.55
2017-02-23T02:41:24.205Z,993.57
2017-02-23T02:42:04.804Z,993.58
2017-02-23T02:42:45.364Z,993.61
2017-02-23T02:43:25.944Z,993.57
2017-02-23T02:44:06.538Z,993.6
2017-02-23T02:44:47.138Z,993.64
2017-02-23T02:45:27.673Z,993.63
2017-02-23T02:46:08.234Z,993.59
2017-02-23T02:46:48.843Z,993.68
2017-02-23T02:47:29.427Z,993.69
2017-02-23T02:48:10.038Z,993.64
2017-02-23T02:48:50.619Z,993.64
2017-02-23T02:49:31.208Z,993.57
2017-02-23T02:50:11.850Z,993.66
2017-02-23T02:50:52.425Z,993.65
2017-02-23T02:51:33.014Z,993.68
2017-02-23T02:52:13.587Z,993.66
2017-02-23T02:52:54.197Z,993.62
2017-02-23T02:53:34.775Z,993.58
2017-02-23T02:54:15.399Z,993.64
2017-02-23T02:54:55.946Z,993.62
2017-02-23T02:55:36.558Z,993.63
2017-02-23T02:56:17.149Z,993.63
2017-02-23T02:56:57.686Z,993.7
2017-02-23T02:57:38.302Z,993.66
2017-02-23T02:58:18.899Z,993.63
2017-02-23T02:58:59.464Z,993.61
2017-02-23T02:59:40.113Z,993.62
2017-02-23T03:00:20.682Z,993.65
2017-02-23T03:01:01.254Z,993.64
2017-02-23T03:01:41.820Z,993.62
2017-02-23T03:02:22.460Z,993.59
2017-02-23T03:03:03.067Z,993.59
2017-02-23T03:03:43.642Z,993.57
2017-02-23T03:04:24.226Z,993.54
2017-02-23T03:05:04.818Z,993.54
2017-02-23T03:05:45.467Z,993.54
2017-02-23T03:06:26.027Z,993.54
2017-02-23T03:07:06.632Z,993.52
2017-02-23T03:07:47.184Z,993.56
2017-02-23T03:08:27.784Z,993.55
2017-02-23T03:09:08.376Z,993.49
2017-02-23T03:09:49.068Z,993.59
2017-02-23T03:10:29.630Z,993.52
2017-02-23T03:11:10.207Z,993.55
2017-02-23T03:11:50.837Z,993.53
2017-02-23T03:12:31.424Z,993.53
2017-02-23T03:13:11.983Z,993.56
2017-02-23T03:13:52.559Z,993.53
2017-02-23T03:14:33.132Z,993.53
2017-02-23T03:15:13.696Z,993.5
2017-02-23T03:15:54.288Z,993.52
2017-02-23T03:16:34.888Z,993.56
2017-02-23T03:17:15.480Z,993.52
2017-02-23T03:17:56.065Z,993.54
2017-02-23T03:18:36.644Z,993.53
2017-02-23T03:19:17.210Z,993.53
2017-02-23T03:19:57.773Z,993.52
2017-02-23T03:20:38.337Z,993.55
2017-02-23T03:21:18.901Z,993.56
2017-02-23T03:21:59.498Z,993.56
2017-02-23T03:22:40.104Z,993.56
2017-02-23T03:23:20.684Z,993.61
2017-02-23T03:24:01.255Z,993.62
2017-02-23T03:24:41.861Z,993.59
2017-02-23T03:25:22.414Z,993.67
2017-02-23T03:26:03.010Z,993.7
2017-02-23T03:26:43.628Z,993.63
2017-02-23T03:27:24.224Z,993.63
2017-02-23T03:28:04.872Z,993.69
2017-02-23T03:28:45.419Z,993.7
2017-02-23T03:29:26.044Z,993.69
2017-02-23T03:30:06.648Z,993.73
2017-02-23T03:30:47.230Z,993.75
2017-02-23T03:31:27.807Z,993.73
2017-02-23T03:32:08.400Z,993.78
2017-02-23T03:32:49.044Z,993.79
2017-02-23T03:33:29.605Z,993.77
2017-02-23T03:34:10.202Z,993.77
2017-02-23T03:34:50.791Z,993.78
2017-02-23T03:35:31.355Z,993.74
2017-02-23T03:36:11.915Z,993.78
2017-02-23T03:36:52.482Z,993.74
2017-02-23T03:37:33.085Z,993.7
2017-02-23T03:38:13.642Z,993.68
2017-02-23T03:38:54.222Z,993.72
2017-02-23T03:39:34.797Z,993.72
2017-02-23T03:40:15.364Z,993.75
2017-02-23T03:40:55.968Z,993.73
2017-02-23T03:41:36.528Z,993.78
2017-02-23T03:42:17.099Z,993.72
2017-02-23T03:42:57.680Z,993.75
2017-02-23T03:43:38.240Z,993.75
2017-02-23T03:44:18.845Z,993.71
2017-02-23T03:44:59.415Z,993.7
2017-02-23T03:45:39.988Z,993.68
2017-02-23T03:46:20.579Z,993.75
2017-02-23T03:47:01.213Z,993.73
2017-02-23T03:47:41.746Z,993.72
2017-02-23T03:48:22.334Z,993.81
2017-02-23T03:49:02.909Z,993.77
2017-02-23T03:49:43.527Z,993.73
2017-02-23T03:50:24.104Z,993.7
2017-02-23T03:51:04.673Z,993.71
2017-02-23T03:51:45.259Z,993.73
2017-02-23T03:52:25.890Z,993.72
2017-02-23T03:53:06.452Z,993.7
2017-02-23T03:53:47.020Z,993.66
2017-02-23T03:54:27.668Z,993.67
2017-02-23T03:55:08.268Z,993.69
2017-02-23T03:55:48.909Z,993.74
2017-02-23T03:56:29.486Z,993.71
2017-02-23T03:57:10.106Z,993.7
2017-02-23T03:57:50.696Z,993.69
2017-02-23T03:58:31.301Z,993.61
2017-02-23T03:59:11.860Z,993.71
2017-02-23T03:59:52.490Z,993.72
2017-02-23T04:00:33.061Z,993.71
2017-02-23T04:01:13.687Z,993.73
2017-02-23T04:01:54.269Z,993.72
2017-02-23T04:02:34.903Z,993.7
2017-02-23T04:03:15.583Z,993.73
2017-02-23T04:03:56.174Z,993.7
2017-02-23T04:04:36.740Z,993.7
2017-02-23T04:05:17.360Z,993.73
2017-02-23T04:05:57.930Z,993.61
2017-02-23T04:06:38.499Z,993.73
2017-02-23T04:07:19.089Z,993.73
2017-02-23T04:07:59.754Z,993.78
2017-02-23T04:08:40.363Z,993.73
2017-02-23T04:09:20.920Z,993.71
2017-02-23T04:10:01.539Z,993.83
2017-02-23T04:10:42.135Z,993.77
2017-02-23T04:11:22.712Z,993.75
2017-02-23T04:12:03.310Z,993.78
2017-02-23T04:12:43.977Z,993.79
2017-02-23T04:13:24.536Z,993.75
2017-02-23T04:14:05.124Z,993.7
2017-02-23T04:14:45.690Z,993.74
2017-02-23T04:15:26.262Z,993.75
2017-02-23T04:16:06.901Z,993.84
2017-02-23T04:16:47.517Z,993.82
2017-02-23T04:17:28.105Z,993.79
2017-02-23T04:18:08.686Z,993.79
2017-02-23T04:18:49.289Z,993.78
2017-02-23T04:19:29.877Z,993.75
2017-02-23T04:20:10.465Z,993.73
2017-02-23T04:20:51.123Z,993.73
2017-02-23T04:21:31.694Z,993.76
2017-02-23T04:22:12.317Z,993.77
2017-02-23T04:22:52.896Z,993.76
2017-02-23T04:23:33.454Z,993.76
2017-02-23T04:24:14.036Z,993.83
2017-02-23T04:24:54.640Z,993.76
2017-02-23T04:25:35.229Z,993.79
2017-02-23T04:26:15.786Z,993.76
2017-02-23T04:26:56.357Z,993.79
2017-02-23T04:27:36.943Z,993.82
2017-02-23T04:28:17.542Z,993.76
2017-02-23T04:28:58.113Z,993.71
2017-02-23T04:29:38.682Z,993.75
2017-02-23T04:30:19.259Z,993.8
2017-02-23T04:30:59.853Z,993.74
2017-02-23T04:31:40.432Z,993.74
2017-02-23T04:32:21.013Z,993.76
2017-02-23T04:33:01.594Z,993.74
2017-02-23T04:33:42.178Z,993.75
2017-02-23T04:34:22.764Z,993.71
2017-02-23T04:35:03.322Z,993.64
2017-02-23T04:35:43.943Z,993.73
2017-02-23T04:36:24.576Z,993.77
2017-02-23T04:37:05.202Z,993.75
2017-02-23T04:37:45.785Z,993.77
2017-02-23T04:38:26.356Z,993.81
2017-02-23T04:39:06.981Z,993.72
2017-02-23T04:39:47.561Z,993.77
2017-02-23T04:40:28.136Z,993.74
2017-02-23T04:41:08.720Z,993.76
2017-02-23T04:41:49.319Z,993.78
2017-02-23T04:42:29.921Z,993.81
2017-02-23T04:43:10.508Z,993.76
2017-02-23T04:43:51.071Z,993.8
2017-02-23T04:44:31.634Z,993.79
2017-02-23T04:45:12.395Z,993.76
2017-02-23T04:45:52.962Z,993.78
2017-02-23T04:46:33.575Z,993.81
2017-02-23T04:47:14.123Z,993.77
2017-02-23T04:47:54.703Z,993.84
2017-02-23T04:48:35.291Z,993.81
2017-02-23T04:49:15.860Z,993.86
2017-02-23T04:49:56.429Z,993.81
2017-02-23T04:50:37.000Z,993.84
2017-02-23T04:51:17.610Z,993.89
2017-02-23T04:51:58.162Z,993.87
2017-02-23T04:52:38.752Z,993.94
2017-02-23T04:53:19.305Z,993.95
2017-02-23T04:53:59.886Z,993.9
2017-02-23T04:54:40.441Z,993.87
2017-02-23T04:55:21.034Z,993.91
2017-02-23T04:56:01.663Z,993.9
2017-02-23T04:56:42.267Z,993.92
2017-02-23T04:57:22.847Z,993.88
2017-02-23T04:58:03.409Z,993.87
2017-02-23T04:58:44.047Z,993.92
2017-02-23T04:59:24.635Z,993.91
2017-02-23T05:00:05.221Z,993.92
2017-02-23T05:00:45.799Z,993.98
2017-02-23T05:01:26.363Z,993.99
2017-02-23T05:02:06.943Z,993.97
2017-02-23T05:02:47.528Z,994.01
2017-02-23T05:03:28.129Z,994
2017-02-23T05:04:08.730Z,994.05
2017-02-23T05:04:49.327Z,994.06
2017-02-23T05:05:29.898Z,994.07
2017-02-23T05:06:10.481Z,994.06
2017-02-23T05:06:51.073Z,994.06
2017-02-23T05:07:31.658Z,994.09
2017-02-23T05:08:12.274Z,994.08
2017-02-23T05:08:52.859Z,994.09
2017-02-23T05:09:33.443Z,994.08
2017-02-23T05:10:14.026Z,994.12
2017-02-23T05:10:54.608Z,994.1
2017-02-23T05:11:35.181Z,994.09
2017-02-23T05:12:15.758Z,994.1
2017-02-23T05:12:56.424Z,994.08
2017-02-23T05:13:37.036Z,994.1
2017-02-23T05:14:17.596Z,994.07
2017-02-23T05:14:58.158Z,994.05
2017-02-23T05:15:38.733Z,994.14
2017-02-23T05:16:19.305Z,994.1
2017-02-23T05:16:59.881Z,994.05
2017-02-23T05:17:40.442Z,994.06
2017-02-23T05:18:21.054Z,994.08
2017-02-23T05:19:01.623Z,994.09
2017-02-23T05:19:42.190Z,994.09
2017-02-23T05:20:22.776Z,994.04
2017-02-23T05:21:03.352Z,994.04
2017-02-23T05:21:44.725Z,994.08
2017-02-23T05:22:25.301Z,994.02
2017-02-23T05:23:05.884Z,994.06
2017-02-23T05:23:46.464Z,994.01
2017-02-23T05:24:27.033Z,993.98
2017-02-23T05:25:07.606Z,993.98
2017-02-23T05:25:48.177Z,994.01
2017-02-23T05:26:28.757Z,994.03
2017-02-23T05:27:09.329Z,993.95
2017-02-23T05:27:49.916Z,993.97
2017-02-23T05:28:30.517Z,993.97
2017-02-23T05:29:11.091Z,993.87
2017-02-23T05:29:51.660Z,993.96
2017-02-23T05:30:32.244Z,993.95
2017-02-23T05:31:12.818Z,994.03
2017-02-23T05:31:53.417Z,993.98
2017-02-23T05:32:33.999Z,993.96
2017-02-23T05:33:14.584Z,993.98
2017-02-23T05:33:55.169Z,993.97
2017-02-23T05:34:35.730Z,994.01
2017-02-23T05:35:16.295Z,993.98
2017-02-23T05:35:56.870Z,994.03
2017-02-23T05:36:37.458Z,994.04
2017-02-23T05:37:18.062Z,994.01
2017-02-23T05:37:58.614Z,994.08
2017-02-23T05:38:39.192Z,994.05
2017-02-23T05:39:19.793Z,994.11
2017-02-23T05:40:00.356Z,994.03
2017-02-23T05:40:40.944Z,994.04
2017-02-23T05:41:21.523Z,994.03
2017-02-23T05:42:02.106Z,993.99
2017-02-23T05:42:42.693Z,994.02
2017-02-23T05:43:23.308Z,994.02
2017-02-23T05:44:03.875Z,994.04
2017-02-23T05:44:44.453Z,994
2017-02-23T05:45:25.052Z,993.95
2017-02-23T05:46:05.666Z,994.02
2017-02-23T05:46:46.254Z,994.02
2017-02-23T05:47:26.821Z,993.95
2017-02-23T05:48:07.384Z,994.01
2017-02-23T05:48:47.963Z,993.95
2017-02-23T05:49:28.534Z,993.97
2017-02-23T05:50:09.133Z,994
2017-02-23T05:50:49.729Z,994.01
2017-02-23T05:51:30.331Z,994.01
2017-02-23T05:52:10.911Z,994
2017-02-23T05:52:51.471Z,994.02
2017-02-23T05:53:32.040Z,994.05
2017-02-23T05:54:12.605Z,994.01
2017-02-23T05:54:53.174Z,994.02
2017-02-23T05:55:33.737Z,993.99
2017-02-23T05:56:14.319Z,994.03
2017-02-23T05:56:54.929Z,994.01
2017-02-23T05:57:35.561Z,994.02
2017-02-23T05:58:16.128Z,994.04
2017-02-23T05:58:56.719Z,994.06
2017-02-23T05:59:37.286Z,994.02
2017-02-23T06:00:17.846Z,994.06
2017-02-23T06:00:58.431Z,994.07
2017-02-23T06:01:39.012Z,994.05
2017-02-23T06:02:19.581Z,994.06
2017-02-23T06:03:00.174Z,994.08
2017-02-23T06:03:40.760Z,994.1
2017-02-23T06:04:21.341Z,994.04
2017-02-23T06:05:01.906Z,994.09
2017-02-23T06:05:42.466Z,994.1
2017-02-23T06:06:23.050Z,994.07
2017-02-23T06:07:03.627Z,994.09
2017-02-23T06:07:44.203Z,994.07
2017-02-23T06:08:24.767Z,994.09
2017-02-23T06:09:05.346Z,994.09
2017-02-23T06:09:45.917Z,994.05
2017-02-23T06:10:26.492Z,994.11
2017-02-23T06:11:07.090Z,994.1
2017-02-23T06:11:47.684Z,994.09
2017-02-23T06:12:28.266Z,994.06
2017-02-23T06:13:08.876Z,994.07
2017-02-23T06:13:49.511Z,994.13
2017-02-23T06:14:30.113Z,994.09
2017-02-23T06:15:10.735Z,994.1
2017-02-23T06:15:51.316Z,994.07
2017-02-23T06:16:31.883Z,994.12
2017-02-23T06:17:12.449Z,994.12
2017-02-23T06:17:53.049Z,994.11
2017-02-23T06:18:33.623Z,994.12
2017-02-23T06:19:14.267Z,994.09
2017-02-23T06:19:54.895Z,994.09
2017-02-23T06:20:35.514Z,994.08
2017-02-23T06:21:16.093Z,994.14
2017-02-23T06:21:56.685Z,994.13
2017-02-23T06:22:37.252Z,994.17
2017-02-23T06:23:17.909Z,994.13
2017-02-23T06:23:58.489Z,994.17
2017-02-23T06:24:39.165Z,994.12
2017-02-23T06:25:19.802Z,994.16
2017-02-23T06:26:00.403Z,994.17
2017-02-23T06:26:41.048Z,994.17
2017-02-23T06:27:21.635Z,994.21
2017-02-23T06:28:02.207Z,994.17
2017-02-23T06:28:42.795Z,994.22
2017-02-23T06:29:23.420Z,994.19
2017-02-23T06:30:04.063Z,994.22
2017-02-23T06:30:44.682Z,994.22
2017-02-23T06:31:25.339Z,994.24
2017-02-23T06:32:05.966Z,994.2
2017-02-23T06:32:46.574Z,994.24
2017-02-23T06:33:27.155Z,994.21
2017-02-23T06:34:07.762Z,994.28
2017-02-23T06:34:48.392Z,994.23
2017-02-23T06:35:28.956Z,994.22
2017-02-23T06:36:09.536Z,994.21
2017-02-23T06:36:50.125Z,994.24
2017-02-23T06:37:30.724Z,994.29
2017-02-23T06:38:11.324Z,994.28
2017-02-23T06:38:51.918Z,994.29
2017-02-23T06:39:32.497Z,994.24
2017-02-23T06:40:13.066Z,994.24
2017-02-23T06:40:53.661Z,994.25
2017-02-23T06:41:34.261Z,994.21
2017-02-23T06:42:14.856Z,994.24
2017-02-23T06:42:55.461Z,994.25
2017-02-23T06:43:36.047Z,994.23
2017-02-23T06:44:16.657Z,994.26
2017-02-23T06:44:57.226Z,994.23
2017-02-23T06:45:37.809Z,994.21
2017-02-23T06:46:18.475Z,994.21
2017-02-23T06:46:59.084Z,994.24
2017-02-23T06:47:39.694Z,994.18
2017-02-23T06:48:20.292Z,994.22
2017-02-23T06:49:00.951Z,994.23
2017-02-23T06:49:41.582Z,994.19
2017-02-23T06:50:22.180Z,994.22
2017-02-23T06:51:02.779Z,994.21
2017-02-23T06:51:43.417Z,994.25
2017-02-23T06:52:24.052Z,994.23
2017-02-23T06:53:04.636Z,994.25
2017-02-23T06:53:45.328Z,994.25
2017-02-23T06:54:25.943Z,994.25
2017-02-23T06:55:06.539Z,994.22
2017-02-23T06:55:47.128Z,994.23
2017-02-23T06:56:27.701Z,994.27
2017-02-23T06:57:08.283Z,994.28
2017-02-23T06:57:48.918Z,994.22
2017-02-23T06:58:29.524Z,994.26
2017-02-23T06:59:10.368Z,994.25
2017-02-23T06:59:50.992Z,994.25
2017-02-23T07:00:31.599Z,994.29
2017-02-23T07:01:14.108Z,994.25
2017-02-23T07:01:54.687Z,994.28
2017-02-23T07:02:35.312Z,994.32
2017-02-23T07:03:15.885Z,994.29
2017-02-23T07:03:56.462Z,994.31
2017-02-23T07:04:37.093Z,994.27
2017-02-23T07:05:17.677Z,994.26
2017-02-23T07:05:58.252Z,994.3
2017-02-23T07:06:38.820Z,994.3
2017-02-23T07:07:19.416Z,994.3
2017-02-23T07:08:00.014Z,994.31
2017-02-23T07:08:40.608Z,994.35
2017-02-23T07:09:21.243Z,994.31
2017-02-23T07:10:01.841Z,994.27
2017-02-23T07:10:42.418Z,994.29
2017-02-23T07:11:23.101Z,994.31
2017-02-23T07:12:03.767Z,994.32
2017-02-23T07:12:44.348Z,994.32
2017-02-23T07:13:24.969Z,994.28
2017-02-23T07:14:05.538Z,994.33
2017-02-23T07:14:46.189Z,994.32
2017-02-23T07:15:26.743Z,994.33
2017-02-23T07:16:07.332Z,994.32
2017-02-23T07:16:47.922Z,994.31
2017-02-23T07:17:28.484Z,994.31
2017-02-23T07:18:09.055Z,994.3
2017-02-23T07:18:49.677Z,994.31
2017-02-23T07:19:30.298Z,994.33
2017-02-23T07:20:10.933Z,994.34
2017-02-23T07:20:51.531Z,994.33
2017-02-23T07:21:32.104Z,994.39
2017-02-23T07:22:12.690Z,994.36
2017-02-23T07:22:53.322Z,994.34
2017-02-23T07:23:33.916Z,994.32
2017-02-23T07:24:14.495Z,994.34
2017-02-23T07:24:55.064Z,994.38
2017-02-23T07:25:35.705Z,994.38
2017-02-23T07:26:16.273Z,994.39
2017-02-23T07:26:56.849Z,994.39
2017-02-23T07:27:37.470Z,994.39
2017-02-23T07:28:18.165Z,994.4
2017-02-23T07:28:58.868Z,994.38
2017-02-23T07:29:39.534Z,994.39
2017-02-23T07:30:20.098Z,994.36
2017-02-23T07:31:00.703Z,994.34
2017-02-23T07:31:41.392Z,994.33
2017-02-23T07:32:22.041Z,994.34
2017-02-23T07:33:02.605Z,994.32
2017-02-23T07:33:43.457Z,994.3
2017-02-23T07:34:24.277Z,994.29
2017-02-23T07:35:04.881Z,994.24
2017-02-23T07:35:45.519Z,994.29
2017-02-23T07:36:26.211Z,994.25
2017-02-23T07:37:06.833Z,994.24
2017-02-23T07:37:47.480Z,994.21
2017-02-23T07:38:28.140Z,994.23
2017-02-23T07:39:08.824Z,994.21
2017-02-23T07:39:49.395Z,994.17
2017-02-23T07:40:30.031Z,994.14
2017-02-23T07:41:10.615Z,994.18
2017-02-23T07:41:53.228Z,994.24
2017-02-23T07:42:36.744Z,994.21
2017-02-23T07:43:18.303Z,994.25
2017-02-23T07:43:59.825Z,994.22
2017-02-23T07:44:40.585Z,994.2
2017-02-23T07:45:21.316Z,994.21
2017-02-23T07:46:01.952Z,994.24
2017-02-23T07:46:42.533Z,994.25
2017-02-23T07:47:23.138Z,994.27
2017-02-23T07:48:03.726Z,994.26
2017-02-23T07:48:44.410Z,994.26
2017-02-23T07:49:25.115Z,994.21
2017-02-23T07:50:05.761Z,994.26
2017-02-23T07:50:46.414Z,994.25
2017-02-23T07:51:26.990Z,994.19
2017-02-23T07:52:07.563Z,994.2
2017-02-23T07:52:48.272Z,994.19
2017-02-23T07:53:28.877Z,994.23
2017-02-23T07:54:09.491Z,994.21
2017-02-23T07:54:50.127Z,994.24
2017-02-23T07:55:30.728Z,994.25
2017-02-23T07:56:11.336Z,994.21
2017-02-23T07:56:51.970Z,994.22
2017-02-23T07:57:32.763Z,994.17
2017-02-23T07:58:13.404Z,994.21
2017-02-23T07:58:53.985Z,994.18
2017-02-23T07:59:34.581Z,994.16
2017-02-23T08:00:15.175Z,994.17
2017-02-23T08:00:55.795Z,994.2
2017-02-23T08:01:36.385Z,994.18
2017-02-23T08:02:17.000Z,994.19
2017-02-23T08:02:57.595Z,994.18
2017-02-23T08:03:38.189Z,994.23
2017-02-23T08:04:18.794Z,994.16
2017-02-23T08:04:59.374Z,994.21
2017-02-23T08:05:39.975Z,994.2
2017-02-23T08:06:20.603Z,994.2
2017-02-23T08:07:01.196Z,994.18
2017-02-23T08:07:41.811Z,994.19
2017-02-23T08:08:22.423Z,994.19
2017-02-23T08:09:03.054Z,994.2
2017-02-23T08:09:43.648Z,994.2
2017-02-23T08:10:24.265Z,994.16
2017-02-23T08:11:04.870Z,994.14
2017-02-23T08:11:45.456Z,994.18
2017-02-23T08:12:26.079Z,994.15
2017-02-23T08:13:06.690Z,994.12
2017-02-23T08:13:47.302Z,994.15
2017-02-23T08:14:27.927Z,994.13
2017-02-23T08:15:08.511Z,994.13
2017-02-23T08:15:49.088Z,994.16
2017-02-23T08:16:29.721Z,994.18
2017-02-23T08:17:10.339Z,994.12
2017-02-23T08:17:50.933Z,994.15
2017-02-23T08:18:31.519Z,994.1
2017-02-23T08:19:12.139Z,994.17
2017-02-23T08:19:52.702Z,994.14
2017-02-23T08:20:33.307Z,994.13
2017-02-23T08:21:13.945Z,994.16
2017-02-23T08:21:54.530Z,994.14
2017-02-23T08:22:35.094Z,994.14
2017-02-23T08:23:15.680Z,994.14
2017-02-23T08:23:56.281Z,994.11
2017-02-23T08:24:36.854Z,994.12
2017-02-23T08:25:17.435Z,994.07
2017-02-23T08:25:58.043Z,994.1
2017-02-23T08:26:38.637Z,994.08
2017-02-23T08:27:19.225Z,994.07
2017-02-23T08:27:59.823Z,994.05